sensor_id;sensor_type;location;lat;lon;timestamp;pressure;altitude;pressure_sealevel;temperature;humidity
5296;BME280;2670;42.720;23.336;2023-09-08T00:02:14;-18091.72;;;-145.34;73.60
5296;BME280;2670;42.720;23.336;2023-09-08T00:04:41;-18091.72;;;-145.34;73.70
5296;BME280;2670;42.720;23.336;2023-09-08T00:07:08;-18091.72;;;-145.34;73.93
5296;BME280;2670;42.720;23.336;2023-09-08T00:09:35;-18091.72;;;-145.34;73.74
5296;BME280;2670;42.720;23.336;2023-09-08T00:12:02;-18091.72;;;-145.34;73.33
5296;BME280;2670;42.720;23.336;2023-09-08T00:14:29;-18091.72;;;-145.34;72.75
5296;BME280;2670;42.720;23.336;2023-09-08T00:16:55;-18091.72;;;-145.34;73.07
5296;BME280;2670;42.720;23.336;2023-09-08T00:19:24;-18091.72;;;-145.34;72.78
5296;BME280;2670;42.720;23.336;2023-09-08T00:21:51;-18091.72;;;-145.34;72.97
5296;BME280;2670;42.720;23.336;2023-09-08T00:24:18;-18091.72;;;-145.34;72.47
5296;BME280;2670;42.720;23.336;2023-09-08T00:26:45;-18091.72;;;-145.34;72.19
5296;BME280;2670;42.720;23.336;2023-09-08T00:29:11;-18091.72;;;-145.34;71.97
5296;BME280;2670;42.720;23.336;2023-09-08T00:31:38;-18091.72;;;-145.34;71.75
5296;BME280;2670;42.720;23.336;2023-09-08T00:34:05;-18091.72;;;-145.34;71.53
5296;BME280;2670;42.720;23.336;2023-09-08T00:36:33;-18091.72;;;-145.34;71.10
5296;BME280;2670;42.720;23.336;2023-09-08T00:39:00;-18091.72;;;-145.34;71.56
5296;BME280;2670;42.720;23.336;2023-09-08T00:41:26;-18091.72;;;-145.34;71.17
5296;BME280;2670;42.720;23.336;2023-09-08T00:43:53;-18091.72;;;-145.34;70.92
5296;BME280;2670;42.720;23.336;2023-09-08T00:46:20;-18091.72;;;-145.34;70.83
5296;BME280;2670;42.720;23.336;2023-09-08T00:48:47;-18091.72;;;-145.34;70.88
5296;BME280;2670;42.720;23.336;2023-09-08T00:51:14;-18091.72;;;-145.34;70.95
5296;BME280;2670;42.720;23.336;2023-09-08T00:53:43;-18091.72;;;-145.34;70.49
5296;BME280;2670;42.720;23.336;2023-09-08T00:56:10;-18091.72;;;-145.34;70.84
5296;BME280;2670;42.720;23.336;2023-09-08T00:58:38;-18091.72;;;-145.34;70.84
5296;BME280;2670;42.720;23.336;2023-09-08T01:01:05;-18091.72;;;-145.34;70.75
5296;BME280;2670;42.720;23.336;2023-09-08T01:03:32;-18091.72;;;-145.34;70.75
5296;BME280;2670;42.720;23.336;2023-09-08T01:05:59;-18091.72;;;-145.34;71.10
5296;BME280;2670;42.720;23.336;2023-09-08T01:08:26;-18091.72;;;-145.34;70.61
5296;BME280;2670;42.720;23.336;2023-09-08T01:10:56;-18091.72;;;-145.34;70.53
5296;BME280;2670;42.720;23.336;2023-09-08T01:13:24;-18091.72;;;-145.34;70.60
5296;BME280;2670;42.720;23.336;2023-09-08T01:15:51;-18091.72;;;-145.34;70.49
5296;BME280;2670;42.720;23.336;2023-09-08T01:18:18;-18091.72;;;-145.34;70.11
5296;BME280;2670;42.720;23.336;2023-09-08T01:20:57;-18091.72;;;-145.34;70.18
5296;BME280;2670;42.720;23.336;2023-09-08T01:23:37;-18091.72;;;-145.34;69.84
5296;BME280;2670;42.720;23.336;2023-09-08T01:26:12;-18091.72;;;-145.34;69.79
5296;BME280;2670;42.720;23.336;2023-09-08T01:28:44;-18091.72;;;-145.34;69.75
5296;BME280;2670;42.720;23.336;2023-09-08T01:31:12;-18091.72;;;-145.34;69.60
5296;BME280;2670;42.720;23.336;2023-09-08T01:33:40;-18091.72;;;-145.34;69.74
5296;BME280;2670;42.720;23.336;2023-09-08T01:36:08;-18091.72;;;-145.34;69.67
5296;BME280;2670;42.720;23.336;2023-09-08T01:38:34;-18091.72;;;-145.34;69.33
5296;BME280;2670;42.720;23.336;2023-09-08T01:41:01;-18091.72;;;-145.34;69.53
5296;BME280;2670;42.720;23.336;2023-09-08T01:43:30;-18091.72;;;-145.34;69.84
5296;BME280;2670;42.720;23.336;2023-09-08T01:45:59;-18091.72;;;-145.34;69.58
5296;BME280;2670;42.720;23.336;2023-09-08T01:48:26;-18091.72;;;-145.34;69.71
5296;BME280;2670;42.720;23.336;2023-09-08T01:50:53;-18091.72;;;-145.34;70.05
5296;BME280;2670;42.720;23.336;2023-09-08T01:53:20;-18091.72;;;-145.34;70.45
5296;BME280;2670;42.720;23.336;2023-09-08T01:55:46;-18091.72;;;-145.34;70.54
5296;BME280;2670;42.720;23.336;2023-09-08T01:58:13;-18091.72;;;-145.34;70.76
5296;BME280;2670;42.720;23.336;2023-09-08T02:00:41;-18091.72;;;-145.34;71.01
5296;BME280;2670;42.720;23.336;2023-09-08T02:03:08;-18091.72;;;-145.34;71.51
5296;BME280;2670;42.720;23.336;2023-09-08T02:05:34;-18091.72;;;-145.34;71.98
5296;BME280;2670;42.720;23.336;2023-09-08T02:08:04;-18091.72;;;-145.34;72.09
5296;BME280;2670;42.720;23.336;2023-09-08T02:10:31;-18091.72;;;-145.34;72.43
5296;BME280;2670;42.720;23.336;2023-09-08T02:12:58;-18091.72;;;-145.34;72.92
5296;BME280;2670;42.720;23.336;2023-09-08T02:15:25;-18091.72;;;-145.34;73.06
5296;BME280;2670;42.720;23.336;2023-09-08T02:17:53;-18091.72;;;-145.34;73.31
5296;BME280;2670;42.720;23.336;2023-09-08T02:20:20;-18091.72;;;-145.34;73.53
5296;BME280;2670;42.720;23.336;2023-09-08T02:22:49;-18091.72;;;-145.34;73.65
5296;BME280;2670;42.720;23.336;2023-09-08T02:25:16;-18091.72;;;-145.34;73.81
5296;BME280;2670;42.720;23.336;2023-09-08T02:27:43;-18091.72;;;-145.34;73.81
5296;BME280;2670;42.720;23.336;2023-09-08T02:30:10;-18091.72;;;-145.34;73.75
5296;BME280;2670;42.720;23.336;2023-09-08T02:32:36;-18091.72;;;-145.34;74.13
5296;BME280;2670;42.720;23.336;2023-09-08T02:35:05;-18091.72;;;-145.34;74.47
5296;BME280;2670;42.720;23.336;2023-09-08T02:37:33;-18091.72;;;-145.34;74.60
5296;BME280;2670;42.720;23.336;2023-09-08T02:40:00;-18091.72;;;-145.34;74.85
5296;BME280;2670;42.720;23.336;2023-09-08T02:42:28;-18091.72;;;-145.34;74.79
5296;BME280;2670;42.720;23.336;2023-09-08T02:44:55;-18091.72;;;-145.34;75.09
5296;BME280;2670;42.720;23.336;2023-09-08T02:47:22;-18091.72;;;-145.34;75.13
5296;BME280;2670;42.720;23.336;2023-09-08T02:49:48;-18091.72;;;-145.34;75.78
5296;BME280;2670;42.720;23.336;2023-09-08T02:52:17;-18091.72;;;-145.34;75.71
5296;BME280;2670;42.720;23.336;2023-09-08T02:54:45;-18091.72;;;-145.34;75.89
5296;BME280;2670;42.720;23.336;2023-09-08T02:57:12;-18091.72;;;-145.34;76.02
5296;BME280;2670;42.720;23.336;2023-09-08T02:59:39;-18091.72;;;-145.34;75.73
5296;BME280;2670;42.720;23.336;2023-09-08T03:02:05;-18091.72;;;-145.34;76.05
5296;BME280;2670;42.720;23.336;2023-09-08T03:04:32;-18091.72;;;-145.34;76.11
5296;BME280;2670;42.720;23.336;2023-09-08T03:06:59;-18091.72;;;-145.34;76.30
5296;BME280;2670;42.720;23.336;2023-09-08T03:09:27;-18091.72;;;-145.34;76.30
5296;BME280;2670;42.720;23.336;2023-09-08T03:11:53;-18091.72;;;-145.34;76.26
5296;BME280;2670;42.720;23.336;2023-09-08T03:14:20;-18091.72;;;-145.34;75.65
5296;BME280;2670;42.720;23.336;2023-09-08T03:16:47;-18091.72;;;-145.34;75.51
5296;BME280;2670;42.720;23.336;2023-09-08T03:19:14;-18091.72;;;-145.34;76.53
5296;BME280;2670;42.720;23.336;2023-09-08T03:21:41;-18091.72;;;-145.34;77.06
5296;BME280;2670;42.720;23.336;2023-09-08T03:24:07;-18091.72;;;-145.34;77.44
5296;BME280;2670;42.720;23.336;2023-09-08T03:26:36;-18091.72;;;-145.34;77.88
5296;BME280;2670;42.720;23.336;2023-09-08T03:29:05;-18091.72;;;-145.34;78.17
5296;BME280;2670;42.720;23.336;2023-09-08T03:31:32;-18091.72;;;-145.34;78.69
5296;BME280;2670;42.720;23.336;2023-09-08T03:33:59;-18091.72;;;-145.34;78.54
5296;BME280;2670;42.720;23.336;2023-09-08T03:36:25;-18091.72;;;-145.34;78.79
5296;BME280;2670;42.720;23.336;2023-09-08T03:38:54;-18091.72;;;-145.34;78.69
5296;BME280;2670;42.720;23.336;2023-09-08T03:41:23;-18091.72;;;-145.34;79.20
5296;BME280;2670;42.720;23.336;2023-09-08T03:43:51;-18091.72;;;-145.34;79.34
5296;BME280;2670;42.720;23.336;2023-09-08T03:46:18;-18091.72;;;-145.34;79.48
5296;BME280;2670;42.720;23.336;2023-09-08T03:48:45;-18091.72;;;-145.34;80.03
5296;BME280;2670;42.720;23.336;2023-09-08T03:51:12;-18091.72;;;-145.34;80.13
5296;BME280;2670;42.720;23.336;2023-09-08T03:53:38;-18091.72;;;-145.34;80.43
5296;BME280;2670;42.720;23.336;2023-09-08T03:56:05;-18091.72;;;-145.34;80.44
5296;BME280;2670;42.720;23.336;2023-09-08T03:58:33;-18091.72;;;-145.34;80.37
5296;BME280;2670;42.720;23.336;2023-09-08T04:01:02;-18091.72;;;-145.34;80.57
5296;BME280;2670;42.720;23.336;2023-09-08T04:03:28;-18091.72;;;-145.34;80.30
5296;BME280;2670;42.720;23.336;2023-09-08T04:05:55;-18091.72;;;-145.34;80.50
5296;BME280;2670;42.720;23.336;2023-09-08T04:08:22;-18091.72;;;-145.34;80.92
5296;BME280;2670;42.720;23.336;2023-09-08T04:10:48;-18091.72;;;-145.34;80.73
5296;BME280;2670;42.720;23.336;2023-09-08T04:13:15;-18091.72;;;-145.34;80.70
5296;BME280;2670;42.720;23.336;2023-09-08T04:15:42;-18091.72;;;-145.34;80.84
5296;BME280;2670;42.720;23.336;2023-09-08T04:18:10;-18091.72;;;-145.34;81.21
5296;BME280;2670;42.720;23.336;2023-09-08T04:20:37;-18091.72;;;-145.34;81.50
5296;BME280;2670;42.720;23.336;2023-09-08T04:23:04;-18091.72;;;-145.34;81.49
5296;BME280;2670;42.720;23.336;2023-09-08T04:25:30;-18091.72;;;-145.34;81.10
5296;BME280;2670;42.720;23.336;2023-09-08T04:27:57;-18091.72;;;-145.34;81.25
5296;BME280;2670;42.720;23.336;2023-09-08T04:30:24;-18091.72;;;-145.34;81.78
5296;BME280;2670;42.720;23.336;2023-09-08T04:32:50;-18091.72;;;-145.34;82.33
5296;BME280;2670;42.720;23.336;2023-09-08T04:35:18;-18091.72;;;-145.34;82.79
5296;BME280;2670;42.720;23.336;2023-09-08T04:37:45;-18091.72;;;-145.34;82.98
5296;BME280;2670;42.720;23.336;2023-09-08T04:40:12;-18091.72;;;-145.34;83.19
5296;BME280;2670;42.720;23.336;2023-09-08T04:42:39;-18091.72;;;-145.34;82.80
5296;BME280;2670;42.720;23.336;2023-09-08T04:45:07;-18091.72;;;-145.34;83.06
5296;BME280;2670;42.720;23.336;2023-09-08T04:47:33;-18091.72;;;-145.34;83.48
5296;BME280;2670;42.720;23.336;2023-09-08T04:50:00;-18091.72;;;-145.34;83.15
5296;BME280;2670;42.720;23.336;2023-09-08T04:52:28;-18091.72;;;-145.34;83.09
5296;BME280;2670;42.720;23.336;2023-09-08T04:54:55;-18091.72;;;-145.34;82.75
5296;BME280;2670;42.720;23.336;2023-09-08T04:57:22;-18091.72;;;-145.34;82.20
5296;BME280;2670;42.720;23.336;2023-09-08T04:59:49;-18091.72;;;-145.34;82.11
5296;BME280;2670;42.720;23.336;2023-09-08T05:02:16;-18091.72;;;-145.34;82.27
5296;BME280;2670;42.720;23.336;2023-09-08T05:04:43;-18091.72;;;-145.34;82.72
5296;BME280;2670;42.720;23.336;2023-09-08T05:07:10;-18091.72;;;-145.34;82.81
5296;BME280;2670;42.720;23.336;2023-09-08T05:09:40;-18091.72;;;-145.34;83.00
5296;BME280;2670;42.720;23.336;2023-09-08T05:12:07;-18091.72;;;-145.34;83.32
5296;BME280;2670;42.720;23.336;2023-09-08T05:14:33;-18091.72;;;-145.34;82.97
5296;BME280;2670;42.720;23.336;2023-09-08T05:17:00;-18091.72;;;-145.34;82.73
5296;BME280;2670;42.720;23.336;2023-09-08T05:19:27;-18091.72;;;-145.34;81.23
5296;BME280;2670;42.720;23.336;2023-09-08T05:21:54;-18091.72;;;-145.34;80.96
5296;BME280;2670;42.720;23.336;2023-09-08T05:24:21;-18091.72;;;-145.34;80.80
5296;BME280;2670;42.720;23.336;2023-09-08T05:26:49;-18091.72;;;-145.34;81.79
5296;BME280;2670;42.720;23.336;2023-09-08T05:29:16;-18091.72;;;-145.34;82.52
5296;BME280;2670;42.720;23.336;2023-09-08T05:31:43;-18091.72;;;-145.34;82.05
5296;BME280;2670;42.720;23.336;2023-09-08T05:34:10;-18091.72;;;-145.34;81.94
5296;BME280;2670;42.720;23.336;2023-09-08T05:36:37;-18091.72;;;-145.34;82.43
5296;BME280;2670;42.720;23.336;2023-09-08T05:39:05;-18091.72;;;-145.34;82.52
5296;BME280;2670;42.720;23.336;2023-09-08T05:41:32;-18091.72;;;-145.34;82.62
5296;BME280;2670;42.720;23.336;2023-09-08T05:44:00;-18091.72;;;-145.34;82.33
5296;BME280;2670;42.720;23.336;2023-09-08T05:46:27;-18091.72;;;-145.34;82.70
5296;BME280;2670;42.720;23.336;2023-09-08T05:48:54;-18091.72;;;-145.34;83.04
5296;BME280;2670;42.720;23.336;2023-09-08T05:51:21;-18091.72;;;-145.34;82.78
5296;BME280;2670;42.720;23.336;2023-09-08T05:53:47;-18091.72;;;-145.34;82.44
5296;BME280;2670;42.720;23.336;2023-09-08T05:56:14;-18091.72;;;-145.34;82.80
5296;BME280;2670;42.720;23.336;2023-09-08T05:58:41;-18091.72;;;-145.34;82.43
5296;BME280;2670;42.720;23.336;2023-09-08T06:01:09;-18091.72;;;-145.34;82.77
5296;BME280;2670;42.720;23.336;2023-09-08T06:03:36;-18091.72;;;-145.34;82.67
5296;BME280;2670;42.720;23.336;2023-09-08T06:06:03;-18091.72;;;-145.34;81.68
5296;BME280;2670;42.720;23.336;2023-09-08T06:08:29;-18091.72;;;-145.34;80.84
5296;BME280;2670;42.720;23.336;2023-09-08T06:10:56;-18091.72;;;-145.34;78.06
5296;BME280;2670;42.720;23.336;2023-09-08T06:13:23;-18091.72;;;-145.34;77.58
5296;BME280;2670;42.720;23.336;2023-09-08T06:15:50;-18091.72;;;-145.34;76.00
5296;BME280;2670;42.720;23.336;2023-09-08T06:18:18;-18091.72;;;-145.34;74.31
5296;BME280;2670;42.720;23.336;2023-09-08T06:20:45;-18091.72;;;-145.34;74.27
5296;BME280;2670;42.720;23.336;2023-09-08T06:23:12;-18091.72;;;-145.34;73.41
5296;BME280;2670;42.720;23.336;2023-09-08T06:25:39;-18091.72;;;-145.34;71.50
5296;BME280;2670;42.720;23.336;2023-09-08T06:28:06;-18091.72;;;-145.34;70.92
5296;BME280;2670;42.720;23.336;2023-09-08T06:30:32;-18091.72;;;-145.34;71.35
5296;BME280;2670;42.720;23.336;2023-09-08T06:32:59;-18091.72;;;-145.34;70.17
5296;BME280;2670;42.720;23.336;2023-09-08T06:35:27;-18091.72;;;-145.34;70.44
5296;BME280;2670;42.720;23.336;2023-09-08T06:37:57;-18091.72;;;-145.34;68.82
5296;BME280;2670;42.720;23.336;2023-09-08T06:40:24;-18091.72;;;-145.34;68.68
5296;BME280;2670;42.720;23.336;2023-09-08T06:42:51;-18091.72;;;-145.34;67.51
5296;BME280;2670;42.720;23.336;2023-09-08T06:45:17;-18091.72;;;-145.34;67.07
5296;BME280;2670;42.720;23.336;2023-09-08T06:47:44;-18091.72;;;-145.34;66.84
5296;BME280;2670;42.720;23.336;2023-09-08T06:50:11;-18091.72;;;-145.34;64.76
5296;BME280;2670;42.720;23.336;2023-09-08T06:52:39;-18091.72;;;-145.34;65.09
5296;BME280;2670;42.720;23.336;2023-09-08T06:55:06;-18091.72;;;-145.34;65.06
5296;BME280;2670;42.720;23.336;2023-09-08T06:57:34;-18091.72;;;-145.34;64.31
5296;BME280;2670;42.720;23.336;2023-09-08T07:00:02;-18091.72;;;-145.34;64.39
5296;BME280;2670;42.720;23.336;2023-09-08T07:02:31;-18091.72;;;-145.34;64.75
5296;BME280;2670;42.720;23.336;2023-09-08T07:04:58;-18091.72;;;-145.34;64.72
5296;BME280;2670;42.720;23.336;2023-09-08T07:07:26;-18091.72;;;-145.34;63.06
5296;BME280;2670;42.720;23.336;2023-09-08T07:09:54;-18091.72;;;-145.34;62.16
5296;BME280;2670;42.720;23.336;2023-09-08T07:12:20;-18091.72;;;-145.34;62.20
5296;BME280;2670;42.720;23.336;2023-09-08T07:14:49;-18091.72;;;-145.34;62.02
5296;BME280;2670;42.720;23.336;2023-09-08T07:17:16;-18091.72;;;-145.34;60.97
5296;BME280;2670;42.720;23.336;2023-09-08T07:19:42;-18091.72;;;-145.34;63.35
5296;BME280;2670;42.720;23.336;2023-09-08T07:22:09;-18091.72;;;-145.34;62.40
5296;BME280;2670;42.720;23.336;2023-09-08T07:24:36;-18091.72;;;-145.34;60.92
5296;BME280;2670;42.720;23.336;2023-09-08T07:27:04;-18091.72;;;-145.34;58.37
5296;BME280;2670;42.720;23.336;2023-09-08T07:29:31;-18091.72;;;-145.34;57.51
5296;BME280;2670;42.720;23.336;2023-09-08T07:31:57;-18091.72;;;-145.34;57.31
5296;BME280;2670;42.720;23.336;2023-09-08T07:34:24;-18091.72;;;-145.34;57.69
5296;BME280;2670;42.720;23.336;2023-09-08T07:36:51;-18091.72;;;-145.34;57.21
5296;BME280;2670;42.720;23.336;2023-09-08T07:39:18;-18091.72;;;-145.34;57.44
5296;BME280;2670;42.720;23.336;2023-09-08T07:41:44;-18091.72;;;-145.34;57.73
5296;BME280;2670;42.720;23.336;2023-09-08T07:44:13;-18091.72;;;-145.34;56.75
5296;BME280;2670;42.720;23.336;2023-09-08T07:46:40;-18091.72;;;-145.34;56.05
5296;BME280;2670;42.720;23.336;2023-09-08T07:49:06;-18091.72;;;-145.34;55.32
5296;BME280;2670;42.720;23.336;2023-09-08T07:51:33;-18091.72;;;-145.34;56.85
5296;BME280;2670;42.720;23.336;2023-09-08T07:54:00;-18091.72;;;-145.34;55.13
5296;BME280;2670;42.720;23.336;2023-09-08T07:56:29;-18091.72;;;-145.34;55.04
5296;BME280;2670;42.720;23.336;2023-09-08T07:58:55;-18091.72;;;-145.34;55.04
5296;BME280;2670;42.720;23.336;2023-09-08T08:01:23;-18091.72;;;-145.34;54.13
5296;BME280;2670;42.720;23.336;2023-09-08T08:03:50;-18091.72;;;-145.34;55.08
5296;BME280;2670;42.720;23.336;2023-09-08T08:06:17;-18091.72;;;-145.34;53.04
5296;BME280;2670;42.720;23.336;2023-09-08T08:08:44;-18091.72;;;-145.34;53.53
5296;BME280;2670;42.720;23.336;2023-09-08T08:11:11;-18091.72;;;-145.34;54.58
5296;BME280;2670;42.720;23.336;2023-09-08T08:13:38;-18091.72;;;-145.34;53.82
5296;BME280;2670;42.720;23.336;2023-09-08T08:16:04;-18091.72;;;-145.34;54.07
5296;BME280;2670;42.720;23.336;2023-09-08T08:18:33;-18091.72;;;-145.34;53.49
5296;BME280;2670;42.720;23.336;2023-09-08T08:20:59;-18091.72;;;-145.34;52.80
5296;BME280;2670;42.720;23.336;2023-09-08T08:23:28;-18091.72;;;-145.34;52.36
5296;BME280;2670;42.720;23.336;2023-09-08T08:25:55;-18091.72;;;-145.34;51.79
5296;BME280;2670;42.720;23.336;2023-09-08T08:28:22;-18091.72;;;-145.34;51.28
5296;BME280;2670;42.720;23.336;2023-09-08T08:30:49;-18091.72;;;-145.34;51.04
5296;BME280;2670;42.720;23.336;2023-09-08T08:33:16;-18091.72;;;-145.34;51.12
5296;BME280;2670;42.720;23.336;2023-09-08T08:35:49;-18091.72;;;-145.34;50.02
5296;BME280;2670;42.720;23.336;2023-09-08T08:38:16;-18091.72;;;-145.34;50.59
5296;BME280;2670;42.720;23.336;2023-09-08T08:40:43;-18091.72;;;-145.34;50.60
5296;BME280;2670;42.720;23.336;2023-09-08T08:43:10;-18091.72;;;-145.34;50.23
5296;BME280;2670;42.720;23.336;2023-09-08T08:45:37;-18091.72;;;-145.34;50.07
5296;BME280;2670;42.720;23.336;2023-09-08T08:48:05;-18091.72;;;-145.34;49.96
5296;BME280;2670;42.720;23.336;2023-09-08T08:50:35;-18091.72;;;-145.34;50.37
5296;BME280;2670;42.720;23.336;2023-09-08T08:53:03;-18091.72;;;-145.34;50.57
5296;BME280;2670;42.720;23.336;2023-09-08T08:55:31;-18091.72;;;-145.34;51.05
5296;BME280;2670;42.720;23.336;2023-09-08T08:58:02;-18091.72;;;-145.34;51.96
5296;BME280;2670;42.720;23.336;2023-09-08T09:00:29;-18091.72;;;-145.34;50.50
5296;BME280;2670;42.720;23.336;2023-09-08T09:02:57;-18091.72;;;-145.34;49.65
5296;BME280;2670;42.720;23.336;2023-09-08T09:05:24;-18091.72;;;-145.34;50.63
5296;BME280;2670;42.720;23.336;2023-09-08T09:07:52;-18091.72;;;-145.34;51.57
5296;BME280;2670;42.720;23.336;2023-09-08T09:10:20;-18091.72;;;-145.34;51.32
5296;BME280;2670;42.720;23.336;2023-09-08T09:12:47;-18091.72;;;-145.34;51.62
5296;BME280;2670;42.720;23.336;2023-09-08T09:15:14;-18091.72;;;-145.34;52.16
5296;BME280;2670;42.720;23.336;2023-09-08T09:17:41;-18091.72;;;-145.34;52.11
5296;BME280;2670;42.720;23.336;2023-09-08T09:20:13;-18091.72;;;-145.34;52.16
5296;BME280;2670;42.720;23.336;2023-09-08T09:22:40;-18091.72;;;-145.34;51.96
5296;BME280;2670;42.720;23.336;2023-09-08T09:25:08;-18091.72;;;-145.34;51.75
5296;BME280;2670;42.720;23.336;2023-09-08T09:27:37;-18091.72;;;-145.34;51.07
5296;BME280;2670;42.720;23.336;2023-09-08T09:30:07;-18091.72;;;-145.34;51.25
5296;BME280;2670;42.720;23.336;2023-09-08T09:32:34;-18091.72;;;-145.34;51.52
5296;BME280;2670;42.720;23.336;2023-09-08T09:35:01;-18091.72;;;-145.34;52.53
5296;BME280;2670;42.720;23.336;2023-09-08T09:37:29;-18091.72;;;-145.34;52.43
5296;BME280;2670;42.720;23.336;2023-09-08T09:39:56;-18091.72;;;-145.34;52.48
5296;BME280;2670;42.720;23.336;2023-09-08T09:42:23;-18091.72;;;-145.34;52.61
5296;BME280;2670;42.720;23.336;2023-09-08T09:44:51;-18091.72;;;-145.34;52.38
5296;BME280;2670;42.720;23.336;2023-09-08T09:47:18;-18091.72;;;-145.34;52.83
5296;BME280;2670;42.720;23.336;2023-09-08T09:49:46;-18091.72;;;-145.34;53.18
5296;BME280;2670;42.720;23.336;2023-09-08T09:52:19;-18091.72;;;-145.34;52.90
5296;BME280;2670;42.720;23.336;2023-09-08T09:54:48;-18091.72;;;-145.34;53.13
5296;BME280;2670;42.720;23.336;2023-09-08T09:57:20;-18091.72;;;-145.34;53.04
5296;BME280;2670;42.720;23.336;2023-09-08T09:59:47;-18091.72;;;-145.34;52.86
5296;BME280;2670;42.720;23.336;2023-09-08T10:02:18;-18091.72;;;-145.34;53.54
5296;BME280;2670;42.720;23.336;2023-09-08T10:04:47;-18091.72;;;-145.34;53.61
5296;BME280;2670;42.720;23.336;2023-09-08T10:07:14;-18091.72;;;-145.34;53.64
5296;BME280;2670;42.720;23.336;2023-09-08T10:09:42;-18091.72;;;-145.34;53.13
5296;BME280;2670;42.720;23.336;2023-09-08T10:12:09;-18091.72;;;-145.34;53.47
5296;BME280;2670;42.720;23.336;2023-09-08T10:14:42;-18091.72;;;-145.34;53.49
5296;BME280;2670;42.720;23.336;2023-09-08T10:17:15;-18091.72;;;-145.34;53.16
5296;BME280;2670;42.720;23.336;2023-09-08T10:19:45;-18091.72;;;-145.34;53.23
5296;BME280;2670;42.720;23.336;2023-09-08T10:22:19;-18091.72;;;-145.34;53.38
5296;BME280;2670;42.720;23.336;2023-09-08T10:24:49;-18091.72;;;-145.34;53.43
5296;BME280;2670;42.720;23.336;2023-09-08T10:27:17;-18091.72;;;-145.34;53.59
5296;BME280;2670;42.720;23.336;2023-09-08T10:29:47;-18091.72;;;-145.34;53.18
5296;BME280;2670;42.720;23.336;2023-09-08T10:32:14;-18091.72;;;-145.34;53.38
5296;BME280;2670;42.720;23.336;2023-09-08T10:34:44;-18091.72;;;-145.34;53.35
5296;BME280;2670;42.720;23.336;2023-09-08T10:37:19;-18091.72;;;-145.34;53.21
5296;BME280;2670;42.720;23.336;2023-09-08T10:39:46;-18091.72;;;-145.34;52.77
5296;BME280;2670;42.720;23.336;2023-09-08T10:42:24;-18091.72;;;-145.34;52.76
5296;BME280;2670;42.720;23.336;2023-09-08T10:45:01;-18091.72;;;-145.34;52.84
5296;BME280;2670;42.720;23.336;2023-09-08T10:47:33;-18091.72;;;-145.34;52.88
5296;BME280;2670;42.720;23.336;2023-09-08T10:50:04;-18091.72;;;-145.34;52.65
5296;BME280;2670;42.720;23.336;2023-09-08T10:52:31;-18091.72;;;-145.34;52.59
5296;BME280;2670;42.720;23.336;2023-09-08T10:55:00;-18091.72;;;-145.34;52.43
5296;BME280;2670;42.720;23.336;2023-09-08T10:57:27;-18091.72;;;-145.34;52.66
5296;BME280;2670;42.720;23.336;2023-09-08T10:59:57;-18091.72;;;-145.34;51.70
5296;BME280;2670;42.720;23.336;2023-09-08T11:02:33;-18091.72;;;-145.34;51.97
5296;BME280;2670;42.720;23.336;2023-09-08T11:05:00;-18091.72;;;-145.34;52.45
5296;BME280;2670;42.720;23.336;2023-09-08T11:07:28;-18091.72;;;-145.34;51.86
5296;BME280;2670;42.720;23.336;2023-09-08T11:09:55;-18091.72;;;-145.34;52.79
5296;BME280;2670;42.720;23.336;2023-09-08T11:12:22;-18091.72;;;-145.34;52.27
5296;BME280;2670;42.720;23.336;2023-09-08T11:14:49;-18091.72;;;-145.34;51.90
5296;BME280;2670;42.720;23.336;2023-09-08T11:17:16;-18091.72;;;-145.34;51.03
5296;BME280;2670;42.720;23.336;2023-09-08T11:19:45;-18091.72;;;-145.34;50.81
5296;BME280;2670;42.720;23.336;2023-09-08T11:22:12;-18091.72;;;-145.34;50.36
5296;BME280;2670;42.720;23.336;2023-09-08T11:24:41;-18091.72;;;-145.34;51.32
5296;BME280;2670;42.720;23.336;2023-09-08T11:27:08;-18091.72;;;-145.34;51.32
5296;BME280;2670;42.720;23.336;2023-09-08T11:29:35;-18091.72;;;-145.34;51.38
5296;BME280;2670;42.720;23.336;2023-09-08T11:32:02;-18091.72;;;-145.34;51.45
5296;BME280;2670;42.720;23.336;2023-09-08T11:34:29;-18091.72;;;-145.34;50.73
5296;BME280;2670;42.720;23.336;2023-09-08T11:36:57;-18091.72;;;-145.34;50.84
5296;BME280;2670;42.720;23.336;2023-09-08T11:39:23;-18091.72;;;-145.34;51.16
5296;BME280;2670;42.720;23.336;2023-09-08T11:41:55;-18091.72;;;-145.34;50.84
5296;BME280;2670;42.720;23.336;2023-09-08T11:44:22;-18091.72;;;-145.34;50.81
5296;BME280;2670;42.720;23.336;2023-09-08T11:46:49;-18091.72;;;-145.34;50.91
5296;BME280;2670;42.720;23.336;2023-09-08T11:49:18;-18091.72;;;-145.34;50.56
5296;BME280;2670;42.720;23.336;2023-09-08T11:51:45;-18091.72;;;-145.34;50.53
5296;BME280;2670;42.720;23.336;2023-09-08T11:54:12;-18091.72;;;-145.34;50.26
5296;BME280;2670;42.720;23.336;2023-09-08T11:56:39;-18091.72;;;-145.34;50.95
5296;BME280;2670;42.720;23.336;2023-09-08T11:59:07;-18091.72;;;-145.34;50.16
5296;BME280;2670;42.720;23.336;2023-09-08T12:01:35;-18091.72;;;-145.34;49.47
5296;BME280;2670;42.720;23.336;2023-09-08T12:04:02;-18091.72;;;-145.34;49.13
5296;BME280;2670;42.720;23.336;2023-09-08T12:06:29;-18091.72;;;-145.34;49.21
5296;BME280;2670;42.720;23.336;2023-09-08T12:08:56;-18091.72;;;-145.34;49.13
5296;BME280;2670;42.720;23.336;2023-09-08T12:11:32;-18091.72;;;-145.34;49.21
5296;BME280;2670;42.720;23.336;2023-09-08T12:14:00;-18091.72;;;-145.34;49.81
5296;BME280;2670;42.720;23.336;2023-09-08T12:16:28;-18091.72;;;-145.34;49.31
5296;BME280;2670;42.720;23.336;2023-09-08T12:18:55;-18091.72;;;-145.34;48.26
5296;BME280;2670;42.720;23.336;2023-09-08T12:21:22;-18091.72;;;-145.34;48.97
5296;BME280;2670;42.720;23.336;2023-09-08T12:23:50;-18091.72;;;-145.34;48.98
5296;BME280;2670;42.720;23.336;2023-09-08T12:26:17;-18091.72;;;-145.34;49.06
5296;BME280;2670;42.720;23.336;2023-09-08T12:28:45;-18091.72;;;-145.34;48.97
5296;BME280;2670;42.720;23.336;2023-09-08T12:31:14;-18091.72;;;-145.34;48.02
5296;BME280;2670;42.720;23.336;2023-09-08T12:33:43;-18091.72;;;-145.34;48.06
5296;BME280;2670;42.720;23.336;2023-09-08T12:36:10;-18091.72;;;-145.34;47.90
5296;BME280;2670;42.720;23.336;2023-09-08T12:38:47;-18091.72;;;-145.34;49.24
5296;BME280;2670;42.720;23.336;2023-09-08T12:41:13;-18091.72;;;-145.34;48.71
5296;BME280;2670;42.720;23.336;2023-09-08T12:43:40;-18091.72;;;-145.34;48.66